TimeCST,TemperatureF,Dew PointF,Humidity,Sea Level PressureIn,VisibilityMPH,Wind Direction,Wind SpeedMPH,Gust SpeedMPH,PrecipitationIn,Events,Conditions,WindDirDegrees,DateUTC
12:56 AM,43.0,30.9,62,30.20,10.0,North,6.9,-,N/A,,Clear,350,2012-11-14 06:56:00
1:56 AM,43.0,30.9,62,30.19,10.0,North,8.1,-,N/A,,Clear,360,2012-11-14 07:56:00
2:56 AM,42.1,30.9,65,30.19,10.0,North,8.1,-,N/A,,Clear,360,2012-11-14 08:56:00
3:56 AM,41.0,30.9,67,30.19,10.0,North,6.9,-,N/A,,Clear,360,2012-11-14 09:56:00
4:56 AM,39.9,30.9,70,30.19,10.0,North,6.9,-,N/A,,Clear,10,2012-11-14 10:56:00
5:56 AM,39.0,30.9,73,30.20,10.0,North,6.9,-,N/A,,Clear,350,2012-11-14 11:56:00
6:56 AM,41.0,33.1,73,30.22,10.0,North,6.9,-,N/A,,Clear,350,2012-11-14 12:56:00
7:29 AM,42.8,35.6,76,30.27,10.0,North,6.9,-,N/A,,Scattered Clouds,360,2012-11-14 13:29:00
7:49 AM,44.6,35.6,71,30.27,10.0,North,6.9,-,N/A,,Mostly Cloudy,360,2012-11-14 13:49:00
8:56 AM,50.0,41.0,71,30.23,10.0,NE,4.6,-,N/A,,Mostly Cloudy,40,2012-11-14 14:56:00
9:56 AM,54.0,45.0,72,30.23,10.0,North,3.5,-,N/A,,Overcast,10,2012-11-14 15:56:00
10:56 AM,57.9,48.9,72,30.22,10.0,Variable,4.6,-,N/A,,Overcast,0,2012-11-14 16:56:00
11:05 AM,57.2,48.2,72,30.25,10.0,Variable,3.5,-,N/A,,Overcast,0,2012-11-14 17:05:00
11:31 AM,59.0,48.2,67,30.24,10.0,Calm,Calm,-,N/A,,Overcast,0,2012-11-14 17:31:00
11:56 AM,59.0,48.9,69,30.20,10.0,Calm,Calm,-,N/A,,Overcast,0,2012-11-14 17:56:00
12:30 PM,62.6,50.0,63,30.21,10.0,NE,5.8,-,N/A,,Scattered Clouds,40,2012-11-14 18:30:00
12:56 PM,63.0,51.1,65,30.16,10.0,Calm,Calm,-,N/A,,Partly Cloudy,0,2012-11-14 18:56:00
1:56 PM,64.0,52.0,65,30.15,10.0,NE,8.1,-,0.10,,Mostly Cloudy,40,2012-11-14 19:56:00
2:56 PM,61.0,52.0,72,30.16,10.0,ENE,11.5,-,N/A,,Partly Cloudy,70,2012-11-14 20:56:00
3:35 PM,60.8,51.8,72,30.20,10.0,ENE,9.2,-,N/A,,Mostly Cloudy,60,2012-11-14 21:35:00
3:56 PM,59.0,52.0,78,30.17,10.0,NE,8.1,-,N/A,,Overcast,50,2012-11-14 21:56:00
4:56 PM,55.9,50.0,80,30.18,10.0,NE,6.9,-,N/A,,Mostly Cloudy,50,2012-11-14 22:56:00
5:03 PM,55.4,50.0,82,30.21,10.0,NE,5.8,-,N/A,,Scattered Clouds,50,2012-11-14 23:03:00
5:56 PM,55.0,51.1,86,30.19,10.0,NNE,6.9,-,N/A,,Mostly Cloudy,30,2012-11-14 23:56:00
6:56 PM,55.0,51.1,86,30.20,10.0,North,6.9,-,N/A,,Overcast,360,2012-11-15 00:56:00
7:56 PM,55.9,52.0,87,30.20,10.0,NNE,6.9,-,N/A,,Overcast,20,2012-11-15 01:56:00
8:56 PM,55.9,51.1,84,30.20,10.0,NE,8.1,-,N/A,,Overcast,50,2012-11-15 02:56:00
9:56 PM,55.9,51.1,84,30.19,10.0,NE,5.8,-,N/A,,Overcast,50,2012-11-15 03:56:00
10:42 PM,55.4,51.8,88,30.23,10.0,ENE,8.1,-,N/A,,Overcast,60,2012-11-15 04:42:00
10:56 PM,55.0,51.1,86,30.19,10.0,ENE,8.1,-,N/A,,Overcast,60,2012-11-15 04:56:00
11:56 PM,54.0,51.1,90,30.17,10.0,NE,5.8,-,N/A,,Overcast,50,2012-11-15 05:56:00